Home > Products > Valid Products > TAF

000
FTUS46 KLOX 172300
TAFPMD
TAF
KPMD 172335Z 1800/1824 24015G20KT P6SM FEW100
     FM180300 25010KT P6SM SKC
     FM180500 22008KT P6SM SKC
     FM181800 24017G23KT P6SM SKC
     FM182100 24023G30KT P6SM SCT250=



000
FTUS46 KLOX 172300
TAFLGB
TAF
KLGB 172335Z 1800/1824 27012G18KT P6SM SKC
     FM180200 30009KT P6SM SKC
     FM180700 28005KT P6SM SKC
     FM180900 VRB03KT P6SM OVC010
     FM181500 23005KT P6SM OVC015
     FM182100 23007KT P6SM SCT020=



000
FTUS46 KLOX 172300
TAFSMX
TAF
KSMX 172335Z 1800/1824 30009KT P6SM SKC
     FM180300 30007KT 5SM BR OVC004
     FM180600 VRB03KT 3SM BR OVC002
     FM181000 VRB03KT 1/2SM FG VV001
     FM181500 VRB03KT 2SM BR OVC002
     FM181700 28004KT P6SM BKN007
     FM181900 30007KT P6SM SCT012
     FM182100 30012KT P6SM SKC=



000
FTUS46 KLOX 172300
TAFWJF
TAF
KWJF 172335Z 1800/1824 23017G22KT P6SM FEW100
     FM180300 24012KT P6SM SKC
     FM180500 23008KT P6SM SKC
     FM181800 23018G24KT P6SM SKC
     FM182100 23023G30KT P6SM SCT250=



000
FTUS46 KLOX 172300
TAFBUR
TAF
KBUR 172335Z 1800/1824 17007KT P6SM SKC
     FM180300 14005KT P6SM SKC
     FM181200 VRB03KT P6SM OVC010
     FM181700 16005KT 6SM HZ OVC020
     FM182000 19008KT P6SM BKN025
     FM182200 19008KT P6SM SCT030=



000
FTUS46 KLOX 172300
TAFSBP
TAF
KSBP 172335Z 1800/1824 30011KT P6SM SKC
     FM180300 30007KT P6SM SKC
     FM180500 VRB03KT P6SM SKC
     FM180700 VRB03KT 4SM BR OVC004
     FM181000 VRB03KT 2SM BR OVC002
     FM181500 19002KT 6SM BR OVC005
     FM181700 22004KT P6SM BKN010
     FM181900 26006KT P6SM SCT015
     FM182100 29012KT P6SM SKC=



000
FTUS46 KLOX 172300
TAFLAX
TAF
KLAX 172335Z 1800/1906 26014KT P6SM FEW090
     FM180300 25011KT P6SM SKC
     FM180500 25008KT P6SM SKC
     FM181000 23006KT P6SM OVC010
     FM181400 21008KT 5SM HZ OVC015
     FM181800 24009KT 6SM HZ OVC018
     FM182000 24011KT P6SM BKN016
     FM182200 25014KT P6SM SCT015
     FM190300 26011KT P6SM BKN015=



000
FTUS46 KLOX 172300
TAFSBA
TAF
KSBA 172335Z 1800/1824 27011KT P6SM SKC
     FM180100 VRB03KT P6SM SKC WS010/35030KT
     FM181000 VRB03KT P6SM SKC
     FM181400 VRB03KT P6SM SCT006
     FM181700 20006KT P6SM BKN008
     FM182000 25008KT P6SM SCT012=



000
FTUS46 KLOX 172300
TAFVNY
TAF
KVNY 172335Z 1800/1824 27006KT P6SM SKC
     FM180300 VRB03KT P6SM SKC
     FM181300 VRB05KT P6SM OVC010
     FM181800 16005KT P6SM OVC020
     FM182000 15009KT P6SM BKN025
     FM182200 17009KT P6SM SCT030=



000
FTUS46 KLOX 172300
TAFPRB
TAF
KPRB 172335Z 1800/1824 20012KT P6SM SKC
     FM180300 22008KT P6SM SKC
     FM180500 27005KT P6SM SKC
     FM181200 VRB03KT P6SM OVC008
     FM181400 VRB03KT P6SM OVC012
     FM181700 23004KT P6SM BKN016
     FM181900 22006KT P6SM SCT020
     FM182200 20012KT P6SM SCT250=



000
FTUS46 KLOX 172100 AAA
TAFPMD
TAF AMD
KPMD 172125Z 1721/1818 24006KT P6SM SKC
     FM172200 25014KT P6SM VCTS SCT070CB SCT250
     FM180500 23006KT P6SM SCT100
     FM180900 VRB03KT P6SM SCT100=



000
FTUS46 KLOX 172100 AAA
TAFSBA
TAF AMD
KSBA 172124Z 1721/1818 16006KT P6SM SKC
     FM172200 24012KT P6SM FEW100
     FM180100 VRB03KT P6SM FEW100 WS010/35030KT
     FM180700 VRB03KT P6SM FEW100
     FM181400 VRB03KT P6SM SCT010=



000
FTUS46 KLOX 172100 AAA
TAFWJF
TAF AMD
KWJF 172124Z 1721/1818 28006KT P6SM SKC
     FM172200 25015G25KT P6SM VCTS SCT070CB SCT250
     FM180500 24012KT P6SM SCT100
     FM180800 VRB05KT P6SM SCT100=



000
FTUS46 KLOX 172100 AAA
TAFPRB
TAF AMD
KPRB 172123Z 1721/1818 20015G25KT P6SM SCT100
     FM180300 21010KT P6SM SKC
     FM180900 VRB03KT P6SM SKC
     FM181400 VRB03KT 6SM BR BKN010
     FM181700 VRB05KT P6SM SCT010=



000
FTUS46 KLOX 172100 AAA
TAFSBP
TAF AMD
KSBP 172123Z 1721/1818 31010KT P6SM SKC
     FM172200 31012G22KT P6SM SCT100
     FM180300 31007KT 5SM BR BKN007
     FM180600 VRB03KT 5SM BR OVC003
     FM180900 VRB03KT 2SM BR OVC002
     FM181700 VRB05KT P6SM SCT010=



000
FTUS46 KLOX 172000 AAA
TAFLGB
TAF AMD
KLGB 172058Z 1721/1818 30015KT P6SM SCT100
     FM172300 28008KT P6SM SCT100
     FM180400 VRB03KT P6SM SKC
     FM180800 VRB03KT P6SM OVC010
     FM181700 25007KT P6SM SCT015=



000
FTUS46 KLOX 172000 AAA
TAFLAX
TAF AMD
KLAX 172057Z 1721/1824 27015KT P6SM FEW010 SCT100
     FM180400 26007KT P6SM SKC
     FM180700 VRB03KT 5SM BR OVC010
     FM181700 23006KT P6SM SCT015
     FM182100 26011KT P6SM SCT100=



000
FTUS46 KLOX 172000 AAA
TAFSMX
TAF AMD
KSMX 172017Z 1720/1818 30010KT P6SM SKC
     FM172200 30015G25KT P6SM SCT100
     FM180300 30007KT 5SM BR OVC004
     FM180600 VRB03KT 3SM BR OVC002
     FM181000 VRB03KT 1/2SM FG VV001
     FM181700 VRB05KT 6SM BR SCT004=



000
FTUS46 KLOX 171700
TAFSBA
TAF
KSBA 171738Z 1718/1818 16006KT P6SM SKC
     FM172100 24012KT P6SM FEW100
     FM180100 VRB03KT P6SM FEW100 WS010/35030KT
     FM180700 VRB03KT P6SM FEW100
     FM181400 VRB03KT P6SM SCT010=



000
FTUS46 KLOX 171700
TAFSBP
TAF
KSBP 171738Z 1718/1818 VRB05KT P6SM SKC
     FM171900 31007KT P6SM SKC
     FM172100 31015G22KT P6SM SCT100
     FM180300 31007KT 5SM BR BKN007
     FM180600 VRB03KT 5SM BR OVC003
     FM180900 VRB03KT 2SM BR OVC002
     FM181700 VRB05KT P6SM SCT010=



000
FTUS46 KLOX 171700
TAFPRB
TAF
KPRB 171738Z 1718/1818 VRB03KT P6SM SKC
     FM172000 21008KT P6SM SKC
     FM172300 21015G20KT P6SM SCT100
     FM180300 21010KT P6SM SKC
     FM180900 VRB03KT P6SM SKC
     FM181400 VRB03KT 6SM BR BKN010
     FM181700 VRB05KT P6SM SCT010=



000
FTUS46 KLOX 171700
TAFSMX
TAF
KSMX 171738Z 1718/1818 29005KT P6SM SCT004
     FM172000 30015G25KT P6SM SCT100
     FM180300 30007KT 5SM BR OVC004
     FM180600 VRB03KT 3SM BR OVC002
     FM181000 VRB03KT 1/2SM FG VV001
     FM181700 VRB05KT 6SM BR SCT004=



000
FTUS46 KLOX 171700
TAFLAX
TAF
KLAX 171732Z 1718/1824 26008KT P6SM FEW010 SCT100
     FM172100 27015KT P6SM SCT100
     FM180400 26007KT P6SM SKC
     FM180700 VRB03KT 5SM BR OVC010
     FM181700 23006KT P6SM SCT015
     FM182100 26011KT P6SM SCT100=



000
FTUS46 KLOX 171700
TAFLGB
TAF
KLGB 171732Z 1718/1818 VRB05KT P6SM SCT100
     FM172300 28008KT P6SM SCT100
     FM180400 VRB03KT P6SM SKC
     FM180800 VRB03KT P6SM OVC010
     FM181700 25007KT P6SM SCT015=



000
FTUS46 KLOX 171700
TAFBUR
TAF
KBUR 171732Z 1718/1818 17009KT P6SM SCT100
     FM180300 VRB03KT P6SM SCT100
     FM181200 14005KT P6SM BKN008
     FM181600 17008KT P6SM SCT010=



000
FTUS46 KLOX 171700
TAFPMD
TAF
KPMD 171732Z 1718/1818 VRB05KT P6SM SKC
     FM172200 25014KT P6SM VCTS SCT070CB SCT250
     FM180500 23006KT P6SM SCT100
     FM180900 VRB03KT P6SM SCT100=



000
FTUS46 KLOX 171700
TAFWJF
TAF
KWJF 171732Z 1718/1818 VRB05KT P6SM SKC
     FM172200 25015G25KT P6SM VCTS SCT070CB SCT250
     FM180500 24012KT P6SM SCT100
     FM180800 VRB05KT P6SM SCT100=



000
FTUS46 KLOX 171700
TAFVNY
TAF
KVNY 171732Z 1718/1818 14010KT P6SM SCT100
     FM180300 VRB03KT P6SM SCT100
     FM181300 VRB05KT P6SM BKN008
     FM181600 15007KT P6SM SCT010=



000
FTUS46 KLOX 171600 AAA
TAFLAX
TAF AMD
KLAX 171641Z 1717/1818 VRB05KT P6SM FEW010
     FM171800 26007KT P6SM SCT100
     FM172100 27015KT P6SM SCT100
     FM180400 26007KT P6SM SKC
     FM180700 VRB03KT 5SM BR OVC010
     FM181700 23006KT P6SM SCT015=



000
FTUS46 KLOX 171600 AAE
TAFSMX
TAF AMD
KSMX 171602Z 1716/1812 VRB03KT 4SM BR SCT002
      TEMPO 1716/1717 1SM BR BKN002
     FM171700 30008KT 6SM BR SCT007
     FM172000 30015G25KT P6SM SCT100
     FM180300 30007KT 5SM BR OVC004
     FM180600 VRB03KT 3SM BR OVC002
     FM181000 VRB03KT 1/2SM FG VV001=



000
FTUS46 KLOX 171600 AAC
TAFSBP
TAF AMD
KSBP 171601Z 1716/1812 VRB03KT 4SM BR SCT004
      TEMPO 1716/1717 1SM BR BKN002
     FM171700 31007KT P6SM SKC
     FM172000 31015G22KT P6SM SCT100
     FM180300 31007KT 5SM BR BKN007
     FM180600 VRB03KT 5SM BR OVC003
     FM180900 VRB03KT 2SM BR OVC002=



000
FTUS46 KLOX 171500 AAD
TAFSMX
TAF AMD
KSMX 171506Z 1715/1812 VRB03KT 1/4SM FG VV002
      TEMPO 1715/1716 3SM BR SCT002
     FM171700 30008KT 6SM BR SCT007
     FM172000 30015G25KT P6SM SCT100
     FM180300 30007KT 5SM BR OVC004
     FM180600 VRB03KT 3SM BR OVC002
     FM181000 VRB03KT 1/2SM FG VV001=



000
FTUS46 KLOX 171500 AAB
TAFSBP
TAF AMD
KSBP 171500Z 1715/1812 VRB03KT 1SM BR BKN004
      TEMPO 1715/1716 4SM BR SCT006
     FM171600 31007KT P6SM SKC
     FM172000 31015G22KT P6SM SCT100
     FM180300 31007KT 5SM BR BKN007
     FM180600 VRB03KT 5SM BR OVC003
     FM180900 VRB03KT 2SM BR OVC002=



000
FTUS46 KLOX 171400 AAC
TAFSMX
TAF AMD
KSMX 171432Z 1715/1812 VRB03KT 1/2SM FG BKN002
      TEMPO 1715/1716 3SM BR SCT002
     FM171700 30008KT 6SM BR SCT007
     FM172000 30015G25KT P6SM SCT100
     FM180300 30007KT 5SM BR OVC004
     FM180600 VRB03KT 3SM BR OVC002
     FM181000 VRB03KT 1/2SM FG VV001=



000
FTUS46 KLOX 171400 AAB
TAFSMX
TAF AMD
KSMX 171409Z 1714/1812 VRB03KT 4SM BR SCT002
      TEMPO 1714/1716 3SM BR BKN002
     FM171700 30008KT 6SM BR SCT007
     FM172000 30015G25KT P6SM SCT100
     FM180300 30007KT 5SM BR OVC004
     FM180600 VRB03KT 3SM BR OVC002
     FM181000 VRB03KT 1/2SM FG VV001=



000
FTUS46 KLOX 171300 AAA
TAFSMX
TAF AMD
KSMX 171326Z 1713/1812 VRB03KT 6SM BR SKC
     FM171400 VRB03KT 6SM BR SCT004
     FM171700 30008KT 6SM BR SCT007
     FM172000 30015G25KT P6SM SCT100
     FM180300 30007KT 5SM BR OVC004
     FM180600 VRB03KT 3SM BR OVC002
     FM181000 VRB03KT 1/2SM FG VV001=



000
FTUS46 KLOX 171300 AAA
TAFSBP
TAF AMD
KSBP 171325Z 1713/1812 VRB03KT P6SM SCT004
     FM171400 VRB04KT P6SM BKN003
     FM171600 31007KT P6SM SKC
     FM172000 31015G22KT P6SM SCT100
     FM180300 31007KT 5SM BR BKN007
     FM180600 VRB03KT 5SM BR OVC003
     FM180900 VRB03KT 2SM BR OVC002=



000
FTUS46 KLOX 171100
TAFPMD
TAF
KPMD 171137Z 1712/1812 VRB05KT P6SM SKC
     FM172200 25014KT P6SM VCTS SCT070CB SCT250
     FM180500 23007KT P6SM SCT100=



000
FTUS46 KLOX 171100
TAFSMX
TAF
KSMX 171137Z 1712/1812 VRB03KT P6SM SKC
     FM171300 VRB03KT 3SM BR BKN003
     FM171700 30008KT 6SM BR SCT007
     FM172000 30015G25KT P6SM SCT100
     FM180300 30007KT 5SM BR OVC004
     FM180600 VRB03KT 3SM BR OVC002
     FM181000 VRB03KT 1/2SM FG VV001=



000
FTUS46 KLOX 171100
TAFWJF
TAF
KWJF 171137Z 1712/1812 VRB05KT P6SM SKC
     FM172200 25015G25KT P6SM VCTS SCT070CB SCT250
     FM180500 24012KT P6SM SCT100=



000
FTUS46 KLOX 171100
TAFSBA
TAF
KSBA 171137Z 1712/1812 VRB03KT P6SM SKC
     FM171700 16006KT P6SM SKC
     FM172100 24012KT P6SM FEW100
     FM180100 VRB03KT P6SM FEW100 WS010/35030KT
     FM180700 VRB03KT P6SM FEW100=



000
FTUS46 KLOX 171100
TAFVNY
TAF
KVNY 171137Z 1712/1812 VRB03KT P6SM SKC
     FM172000 14009KT P6SM SCT100
     FM180300 VRB03KT P6SM SCT100=



000
FTUS46 KLOX 171100
TAFSBP
TAF
KSBP 171137Z 1712/1812 VRB03KT P6SM SKC
     FM171300 VRB04KT 3SM BR BKN003
     FM171600 31007KT P6SM SKC
     FM172000 31015G22KT P6SM SCT100
     FM180300 31007KT 5SM BR BKN007
     FM180600 VRB03KT 5SM BR OVC003
     FM180900 VRB03KT 2SM BR OVC002=



000
FTUS46 KLOX 171100
TAFBUR
TAF
KBUR 171137Z 1712/1812 VRB03KT P6SM SKC
     FM172000 17009KT P6SM SCT100
     FM180300 VRB03KT P6SM SCT100
     FM181100 14005KT P6SM BKN008=



000
FTUS46 KLOX 171100
TAFLAX
TAF
KLAX 171137Z 1712/1818 VRB03KT P6SM SCT120
     FM171300 VRB03KT 6SM BR SCT003
     FM171700 26007KT P6SM SCT100
     FM172000 27015KT P6SM SCT100
     FM180400 26007KT P6SM SKC
     FM180700 VRB03KT 5SM BR OVC010
     FM181700 23006KT P6SM SCT015=



000
FTUS46 KLOX 171100
TAFLGB
TAF
KLGB 171137Z 1712/1812 00000KT 6SM BR SCT003
     FM171600 18006KT P6SM SCT100
     FM172300 28008KT P6SM SCT100
     FM180400 VRB03KT P6SM SKC
     FM180800 VRB03KT P6SM OVC010=



000
FTUS46 KLOX 171100
TAFPRB
TAF
KPRB 171137Z 1712/1812 VRB03KT P6SM SKC
     FM172000 21008KT P6SM SCT100
     FM172300 21015G20KT P6SM SCT100
     FM180300 21010KT P6SM SKC
     FM180900 VRB03KT P6SM SKC=



000
FTUS46 KLOX 171000 AAB
TAFSMX
TAF AMD
KSMX 171042Z 1711/1806 VRB03KT 6SM BR SCT003
     FM171300 00000KT 1/4SM FG OVC001
     FM171500 VRB03KT 3SM BR BKN003
     FM171700 30008KT 6SM BR SCT007
     FM172000 30015G25KT P6SM SCT100
     FM180300 30007KT 5SM BR OVC004=



000
FTUS46 KLOX 170900 AAA
TAFLAX
TAF AMD
KLAX 170902Z 1709/1812 VRB03KT P6SM SCT120
     FM171300 VRB03KT 6SM BR SCT003
     FM171700 26007KT P6SM SCT100
     FM172000 27015KT P6SM SCT100
     FM180400 26007KT P6SM SKC
     FM180700 VRB03KT 5SM BR OVC010=



000
FTUS46 KLOX 170600 AAA
TAFSMX
TAF AMD
KSMX 170616Z 1706/1806 VRB03KT 5SM BR BKN004
     FM170800 VRB03KT 3SM BR BKN003
     FM171000 00000KT 1/4SM FG OVC001
     FM171500 VRB03KT 3SM BR BKN003
     FM171700 30008KT 6SM BR SCT007
     FM172000 30015G25KT P6SM SCT100
     FM180300 30007KT 5SM BR OVC004=



000
FTUS46 KLOX 170500
TAFLAX
TAF
KLAX 170522Z 1706/1812 14006KT P6SM SCT120
     FM171300 VRB03KT 6SM BR SCT003
     FM171700 26007KT P6SM SCT100
     FM172000 27015KT P6SM SCT100
     FM180400 26007KT P6SM SKC
     FM180700 VRB03KT 5SM BR OVC010=



000
FTUS46 KLOX 170500
TAFSBA
TAF
KSBA 170522Z 1706/1806 33006KT P6SM SCT250 WS010/35030KT
     FM171100 VRB03KT P6SM SKC
     FM171400 10003KT 6SM BR SCT004
     FM171700 16006KT P6SM SKC
     FM172100 24012KT P6SM FEW100
     FM180100 VRB03KT P6SM FEW100 WS010/35030KT=



000
FTUS46 KLOX 170500
TAFBUR
TAF
KBUR 170522Z 1706/1806 VRB03KT P6SM SKC
     FM172000 17009KT P6SM SCT100
     FM180300 VRB03KT P6SM SCT100=



000
FTUS46 KLOX 170500
TAFPRB
TAF
KPRB 170522Z 1706/1806 30010KT P6SM SCT200
     FM171000 VRB03KT P6SM SKC
     FM172000 21008KT P6SM SCT100
     FM172300 21015G20KT P6SM SCT100
     FM180300 21010KT P6SM SKC=



000
FTUS46 KLOX 170500
TAFSBP
TAF
KSBP 170522Z 1706/1806 33007KT P6SM SCT200
     FM171100 VRB04KT 3SM BR BKN003
     FM171600 31007KT P6SM SKC
     FM172000 31015G22KT P6SM SCT100
     FM180300 31007KT 5SM BR BKN007=



000
FTUS46 KLOX 170500
TAFWJF
TAF
KWJF 170522Z 1706/1806 27007KT P6SM SKC
     FM171000 VRB03KT P6SM SKC
     FM172200 25012KT P6SM SCT100 SCT250
     FM180500 VRB03KT P6SM SCT100=



000
FTUS46 KLOX 170500
TAFPMD
TAF
KPMD 170522Z 1706/1806 27007KT P6SM SKC
     FM171000 VRB03KT P6SM SKC
     FM172200 25012KT P6SM SCT100 SCT250
     FM180500 VRB03KT P6SM SCT100=



000
FTUS46 KLOX 170500
TAFLGB
TAF
KLGB 170522Z 1706/1806 VRB03KT P6SM SCT120
     FM171200 00000KT 6SM BR SCT003
     FM171600 18006KT P6SM SCT100
     FM172300 28008KT P6SM SCT100
     FM180400 VRB03KT P6SM SKC=



000
FTUS46 KLOX 170500
TAFSMX
TAF
KSMX 170522Z 1706/1806 33006KT 6SM BR SCT004
     FM170800 VRB03KT 3SM BR BKN003
     FM171000 00000KT 1/4SM FG OVC001
     FM171500 VRB03KT 3SM BR BKN003
     FM171700 30008KT 6SM BR SCT007
     FM172000 30015G25KT P6SM SCT100
     FM180300 30007KT 5SM BR OVC004=



000
FTUS46 KLOX 170500
TAFVNY
TAF
KVNY 170522Z 1706/1806 VRB03KT P6SM SKC
     FM172000 14009KT P6SM SCT100
     FM180300 VRB03KT P6SM SCT100=



000
FTUS46 KLOX 170300 AAA
TAFLAX
TAF AMD
KLAX 170304Z 1703/1806 27007KT P6SM FEW120
     FM170700 VRB03KT P6SM SKC
     FM171300 00000KT 6SM BR VCFG SCT004
     FM172000 27013KT P6SM FEW100
     FM180400 26008KT P6SM SKC=



000
FTUS46 KLOX 170200 AAC
TAFPMD
TAF AMD
KPMD 170235Z 1703/1724 27010KT P6SM BKN100 BKN250
     FM170245 07008KT P6SM -SHRA BKN100 BKN250
     FM170500 19005KT P6SM FEW120
     FM171300 VRB03KT P6SM SKC
     FM172200 24010KT P6SM SCT100 SCT250=



000
FTUS46 KLOX 170200 AAB
TAFPMD
TAF AMD
KPMD 170233Z 1703/1724 27010KT P6SM BKN100 BKN250
     FM170245 07008KT P6SM BKN100 BKN250
     FM170500 19005KT P6SM FEW120
     FM171300 VRB03KT P6SM SKC
     FM172200 24010KT P6SM SCT100 SCT250=



000
FTUS46 KLOX 170200 AAB
TAFWJF
TAF AMD
KWJF 170233Z 1703/1724 27010KT P6SM BKN100 BKN250
     FM170315 07008KT P6SM -SHRA BKN100 BKN250
     FM170500 27008KT P6SM FEW120
     FM171000 VRB03KT P6SM SKC
     FM172100 25012KT P6SM SCT100 SCT250=



000
FTUS46 KLOX 170200 AAA
TAFSBA
TAF AMD
KSBA 170232Z 1703/1724 33006KT P6SM SCT250 WS010/35030KT
     FM170700 VRB03KT P6SM SKC
     FM171300 10003KT 6SM BR SCT004
     FM171600 16005KT P6SM SKC
     FM172100 26014G20KT P6SM FEW100=



000
FTUS46 KLOX 170200 AAA
TAFWJF
TAF AMD
KWJF 170230Z 1703/1724 27010KT P6SM BKN100 BKN250
     FM170315 05008KT P6SM -SHRA BKN100 BKN250
     FM170500 27008KT P6SM FEW120
     FM171000 VRB03KT P6SM SKC
     FM172100 25012KT P6SM SCT100 SCT250=



000
FTUS46 KLOX 170200 AAA
TAFPMD
TAF AMD
KPMD 170229Z 1702/1724 27010KT P6SM BKN100 BKN250
     FM170245 05008KT P6SM BKN100 BKN250
     FM170500 19005KT P6SM FEW120
     FM171300 VRB03KT P6SM SKC
     FM172200 24010KT P6SM SCT100 SCT250=



000
FTUS46 KLOX 170100 AAA
TAFVNY
TAF AMD
KVNY 170114Z 1701/1724 12010KT P6SM SCT100 SCT250
     FM170400 VRB03KT P6SM SKC
     FM172000 14008KT P6SM SCT100 SCT250=



000
FTUS46 KLOX 170100 AAB
TAFBUR
TAF AMD
KBUR 170114Z 1701/1724 14010KT P6SM SCT110 SCT250
     FM170400 VRB03KT P6SM SKC
     FM172000 17009KT P6SM SCT100 SCT250=



000
FTUS46 KLOX 170000 AAA
TAFBUR
TAF AMD
KBUR 170009Z 1700/1724 17007KT P6SM BKN110 BKN250
     FM170200 29008KT P6SM SCT100 SCT250
     FM170400 VRB03KT P6SM SKC
     FM172000 17009KT P6SM SCT100 SCT250=



000
FTUS46 KLOX 162300 RRA
TAFVNY
TAF
KVNY 162351Z 1700/1724 VRB06KT P6SM SCT100 SCT250
     FM170100 29008KT P6SM SCT100 SCT250
     FM170600 VRB03KT P6SM SKC
     FM172000 14008KT P6SM SCT100 SCT250=



000
FTUS46 KLOX 162300 RRA
TAFLGB
TAF
KLGB 162351Z 1700/1724 29012KT P6SM SCT100 SCT250
     FM170400 VRB03KT P6SM FEW120
     FM171000 00000KT 6SM BR VCFG SCT004
     FM171600 18006KT P6SM SKC
     FM172100 30012KT P6SM SCT100=



000
FTUS46 KLOX 162300 RRA
TAFBUR
TAF
KBUR 162351Z 1700/1724 17007KT P6SM SCT100 SCT250
     FM170200 29008KT P6SM SCT100 SCT250
     FM170400 VRB03KT P6SM SKC
     FM172000 17009KT P6SM SCT100 SCT250=



000
FTUS46 KLOX 162300 RRA
TAFPMD
TAF
KPMD 162351Z 1700/1724 24010KT P6SM BKN100 BKN250
     FM170500 19005KT P6SM SKC
     FM171300 VRB03KT P6SM SKC
     FM172200 24010KT P6SM SCT100 SCT250=



000
FTUS46 KLOX 162300 RRA
TAFSBP
TAF
KSBP 162351Z 1700/1724 31015G25KT P6SM SCT250
     FM170300 31008KT P6SM SCT250
     FM171100 VRB04KT 6SM BR SCT004
     FM171600 31006KT P6SM SKC
     FM172000 31015G25KT P6SM FEW100=



000
FTUS46 KLOX 162300 RRA
TAFWJF
TAF
KWJF 162351Z 1700/1724 23010KT P6SM BKN100 BKN250
     FM171000 VRB03KT P6SM SKC
     FM172100 25012KT P6SM SCT100 SCT250=



000
FTUS46 KLOX 162300 RRA
TAFSBA
TAF
KSBA 162351Z 1700/1724 15007KT P6SM FEW100 SCT250 WS010/35035KT
     FM170300 VRB03KT P6SM SCT250 WS010/35030KT
     FM171300 VRB03KT 6SM BR SCT004
     FM171600 16005KT P6SM SKC
     FM172100 26014G20KT P6SM FEW100=



000
FTUS46 KLOX 162300 RRA
TAFSMX
TAF
KSMX 162351Z 1700/1724 30015G25KT P6SM SCT250
     FM170300 30008KT P6SM SCT250
     FM170600 30006KT 6SM BR SCT004
     FM170800 VRB03KT 4SM BR BKN004
     FM171000 00000KT 1/4SM FG OVC001
     FM171500 VRB03KT 4SM BR BKN004
     FM171600 30008KT 6SM BR SCT007
     FM172000 30015G25KT P6SM FEW100=



000
FTUS46 KLOX 162300 RRA
TAFPRB
TAF
KPRB 162351Z 1700/1724 29010KT P6SM SCT250
     FM171000 VRB03KT P6SM SKC
     FM172200 21012KT P6SM SCT100=



000
FTUS46 KLOX 162300 RRA
TAFLAX
TAF
KLAX 162351Z 1700/1806 26011KT P6SM SCT100 SCT250
     FM170300 27007KT P6SM FEW120
     FM170700 VRB03KT P6SM SKC
     FM171300 00000KT 6SM BR VCFG SCT004
     FM172000 27013KT P6SM FEW100
     FM180400 26008KT P6SM SKC=



000
FTUS46 KLOX 162200 AAB
TAFLGB
TAF AMD
KLGB 162235Z 1623/1718 29012KT P6SM SKC
     FM170400 VRB03KT P6SM SKC=



000
FTUS46 KLOX 162000 AAA
TAFLAX
TAF AMD
KLAX 162053Z 1621/1724 26011KT P6SM FEW015 SCT100
     FM170300 27007KT P6SM SKC
     FM170700 VRB03KT P6SM SKC
     FM172000 27010KT P6SM SKC=



000
FTUS46 KLOX 162000 AAA
TAFLGB
TAF AMD
KLGB 162025Z 1620/1718 20007KT P6SM SKC
     FM170400 VRB03KT P6SM SKC=



000
FTUS46 KLOX 161700
TAFSMX
TAF
KSMX 161737Z 1618/1718 VRB05KT P6SM SKC
     FM161900 30012KT P6SM SKC
     FM170300 VRB03KT P6SM SKC
     FM171200 VRB03KT P6SM SCT004
     FM171400 VRB03KT 1/4SM FG OVC001
     FM171600 VRB05KT 4SM BR SCT010=



000
FTUS46 KLOX 161700
TAFPMD
TAF
KPMD 161737Z 1618/1718 VRB05KT P6SM SKC
     FM162200 25010KT P6SM SCT100
     FM170700 VRB03KT P6SM SKC=



000
FTUS46 KLOX 161700
TAFSBP
TAF
KSBP 161737Z 1618/1718 31012KT P6SM SKC
     FM170300 VRB03KT P6SM SKC
     FM171400 VRB05KT P6SM SCT004=



000
FTUS46 KLOX 161700
TAFVNY
TAF
KVNY 161737Z 1618/1718 VRB05KT P6SM SKC
     FM162000 15007KT P6SM SKC
     FM162300 29008KT P6SM SKC
     FM170300 VRB03KT P6SM SKC=



000
FTUS46 KLOX 161700
TAFBUR
TAF
KBUR 161737Z 1618/1718 VRB03KT P6SM SKC
     FM162000 17008KT P6SM SKC
     FM170000 29008KT P6SM SKC
     FM170400 VRB03KT P6SM SKC=



000
FTUS46 KLOX 161700
TAFLAX
TAF
KLAX 161737Z 1618/1724 VRB05KT P6SM FEW015 SCT110
     FM162100 27015KT P6SM SKC
     FM170300 27008KT P6SM SKC
     FM170700 VRB03KT P6SM SKC
     FM172000 27010KT P6SM SKC=



000
FTUS46 KLOX 161700
TAFLGB
TAF
KLGB 161737Z 1618/1718 VRB03KT P6SM SKC
     FM162000 30012KT P6SM SKC
     FM170400 VRB03KT P6SM SKC=



000
FTUS46 KLOX 161700
TAFSBA
TAF
KSBA 161737Z 1618/1718 VRB05KT P6SM SKC
     FM162100 23007KT P6SM SKC
     FM170100 VRB03KT P6SM SKC WS010/35025KT
     FM171100 VRB03KT P6SM SKC
     FM171500 VRB03KT P6SM SCT004=



000
FTUS46 KLOX 161700
TAFPRB
TAF
KPRB 161737Z 1618/1718 VRB03KT P6SM SKC
     FM162200 20010KT P6SM SKC
     FM170200 30010KT P6SM SKC
     FM171000 VRB03KT P6SM SKC=



000
FTUS46 KLOX 161700
TAFWJF
TAF
KWJF 161737Z 1618/1718 VRB05KT P6SM SKC
     FM162200 25012KT P6SM SCT100
     FM171000 VRB03KT P6SM SKC=



000
FTUS46 KLOX 161500 AAA
TAFSBP
TAF AMD
KSBP 161500Z 1615/1712 31013KT P6SM SKC
     FM170300 VRB03KT P6SM SKC=



000
FTUS46 KLOX 161500 AAA
TAFLAX
TAF AMD
KLAX 161458Z 1615/1718 VRB05KT P6SM FEW010 SCT100
     FM161800 27008KT P6SM SKC
     FM162100 27015KT P6SM SKC
     FM170300 27008KT P6SM SKC
     FM170700 VRB03KT P6SM SKC
     FM171700 27008KT P6SM SKC=



000
FTUS46 KLOX 161100
TAFSMX
TAF
KSMX 161129Z 1612/1712 VRB03KT P6SM SKC
     FM161900 30012KT P6SM SKC
     FM170300 VRB03KT P6SM SKC
     FM171100 VRB03KT 1/4SM FG OVC001=



000
FTUS46 KLOX 161100
TAFSBP
TAF
KSBP 161129Z 1612/1712 VRB03KT P6SM SKC
     FM161900 31012KT P6SM SKC
     FM170300 VRB03KT P6SM SKC=



000
FTUS46 KLOX 161100
TAFWJF
TAF
KWJF 161129Z 1612/1712 VRB03KT P6SM SKC
     FM162200 25012KT P6SM SCT100
     FM171000 VRB03KT P6SM SKC=



000
FTUS46 KLOX 161100
TAFPRB
TAF
KPRB 161129Z 1612/1712 VRB03KT P6SM SKC
     FM162200 20010KT P6SM SKC
     FM170200 30010KT P6SM SKC
     FM171000 VRB03KT P6SM SKC=



000
FTUS46 KLOX 161100
TAFSBA
TAF
KSBA 161129Z 1612/1712 VRB03KT P6SM SKC
     FM162100 23007KT P6SM SKC
     FM170100 VRB03KT P6SM SKC WS010/35025KT
     FM171100 VRB03KT P6SM SKC=



000
FTUS46 KLOX 161100
TAFVNY
TAF
KVNY 161129Z 1612/1712 VRB03KT P6SM SKC
     FM162000 15007KT P6SM SKC
     FM162300 29008KT P6SM SKC
     FM170300 VRB03KT P6SM SKC=



000
FTUS46 KLOX 161100
TAFPMD
TAF
KPMD 161129Z 1612/1712 VRB03KT P6SM SKC
     FM162200 25010KT P6SM SCT100
     FM170700 VRB03KT P6SM SKC=



000
FTUS46 KLOX 161100
TAFBUR
TAF
KBUR 161129Z 1612/1712 VRB03KT P6SM SKC
     FM162000 17008KT P6SM SKC
     FM170000 29008KT P6SM SKC
     FM170400 VRB03KT P6SM SKC=



000
FTUS46 KLOX 161100
TAFLGB
TAF
KLGB 161129Z 1612/1712 VRB03KT P6SM SKC
     FM162000 30012KT P6SM SKC
     FM170400 VRB03KT P6SM SKC=



000
FTUS46 KLOX 161100
TAFLAX
TAF
KLAX 161129Z 1612/1718 VRB03KT P6SM SKC
     FM161800 27008KT P6SM SKC
     FM162100 27015KT P6SM SKC
     FM170300 27008KT P6SM SKC
     FM170700 VRB03KT P6SM SKC
     FM171700 27008KT P6SM SKC=



000
FTUS46 KLOX 160800 AAA
TAFLAX
TAF AMD
KLAX 160857Z 1609/1712 VRB03KT P6SM SKC
     FM161800 27008KT P6SM SKC
     FM162100 27015KT P6SM SCT100
     FM170300 27008KT P6SM SKC
     FM170700 VRB03KT P6SM SKC=



000
FTUS46 KLOX 160500 RRA
TAFSBA
TAF
KSBA 160541Z 1606/1706 VRB03KT P6SM SKC WS010/35025KT
     FM161100 VRB03KT P6SM SKC
     FM162100 23007KT P6SM SKC
     FM170100 VRB03KT P6SM SKC WS010/35025KT=



000
FTUS46 KLOX 160500 RRA
TAFLGB
TAF
KLGB 160541Z 1606/1706 VRB03KT P6SM SKC
     FM162000 30012KT P6SM SKC
     FM170400 VRB03KT P6SM SKC=



000
FTUS46 KLOX 160500 RRA
TAFWJF
TAF
KWJF 160541Z 1606/1706 25010KT P6SM SKC
     FM161100 VRB03KT P6SM SKC
     FM162200 25012KT P6SM SCT100=



000
FTUS46 KLOX 160500 RRA
TAFLAX
TAF
KLAX 160541Z 1606/1712 VRB03KT P6SM SKC
     FM161800 27008KT P6SM SKC
     FM162100 27015KT P6SM SCT100
     FM170300 27008KT P6SM SKC
     FM170700 VRB03KT P6SM SKC=



000
FTUS46 KLOX 160500 RRA
TAFPRB
TAF
KPRB 160541Z 1606/1706 30008KT P6SM SKC
     FM160900 VRB03KT P6SM SKC
     FM162200 20010KT P6SM SKC
     FM170200 30010KT P6SM SKC=



000
FTUS46 KLOX 160500 RRA
TAFPMD
TAF
KPMD 160541Z 1606/1706 20006KT P6SM SKC
     FM161100 VRB03KT P6SM SKC
     FM162200 25010KT P6SM SCT100=



000
FTUS46 KLOX 160500 RRA
TAFSMX
TAF
KSMX 160541Z 1606/1706 VRB03KT P6SM SKC
     FM161900 30012KT P6SM SKC
     FM170300 VRB03KT P6SM SKC=



000
FTUS46 KLOX 160500 RRA
TAFBUR
TAF
KBUR 160541Z 1606/1706 VRB03KT P6SM SKC
     FM162000 17008KT P6SM SKC
     FM170000 29008KT P6SM SKC
     FM170400 VRB03KT P6SM SKC=



000
FTUS46 KLOX 160500 RRA
TAFVNY
TAF
KVNY 160541Z 1606/1706 VRB03KT P6SM SKC
     FM162000 15007KT P6SM SKC
     FM162300 29008KT P6SM SKC
     FM170300 VRB03KT P6SM SKC=



000
FTUS46 KLOX 160500 RRA
TAFSBP
TAF
KSBP 160541Z 1606/1706 VRB03KT P6SM SKC
     FM161900 31012KT P6SM SKC
     FM170300 VRB03KT P6SM SKC=



000
FTUS46 KLOX 160200 AAA
TAFLAX
TAF AMD
KLAX 160250Z 1603/1706 27008KT P6SM SKC
     FM160600 VRB03KT P6SM SKC
     FM161800 27008KT P6SM SKC
     FM162100 27015KT P6SM SCT100
     FM170200 27010KT P6SM SKC=



000
FTUS46 KLOX 152300
TAFSBP
TAF
KSBP 152320Z 1600/1624 31012KT P6SM SKC
     FM160500 VRB03KT P6SM SKC
     FM161200 VRB03KT 1SM BR OVC003
     FM161600 VRB03KT P6SM SKC
     FM161900 31012KT P6SM SKC=



000
FTUS46 KLOX 152300
TAFLGB
TAF
KLGB 152320Z 1600/1624 31012KT P6SM SKC
     FM160400 VRB03KT P6SM SKC
     FM161900 18006KT P6SM SKC
     FM162100 30012KT P6SM SKC=



000
FTUS46 KLOX 152300
TAFSBA
TAF
KSBA 152320Z 1600/1624 15007KT P6SM SKC
     FM160200 VRB03KT P6SM SKC
     FM162100 15007KT P6SM SKC=



000
FTUS46 KLOX 152300
TAFBUR
TAF
KBUR 152320Z 1600/1624 17008KT P6SM SKC
     FM160130 28008KT P6SM SKC
     FM160500 VRB03KT P6SM SKC
     FM162000 17008KT P6SM SKC=



000
FTUS46 KLOX 152300
TAFPMD
TAF
KPMD 152320Z 1600/1624 25010KT P6SM SCT080
     FM160600 20006KT P6SM SKC
     FM161300 VRB03KT P6SM SKC
     FM162300 25010KT P6SM SCT100=



000
FTUS46 KLOX 152300
TAFVNY
TAF
KVNY 152320Z 1600/1624 29008KT P6SM SCT100
     FM160300 VRB03KT P6SM SKC
     FM162000 15007KT P6SM SKC
     FM162300 29008KT P6SM SKC=



000
FTUS46 KLOX 152300
TAFSMX
TAF
KSMX 152320Z 1600/1624 30012KT P6SM SKC
     FM160300 VRB03KT P6SM SKC
     FM161000 VRB03KT 3SM BR OVC004
     FM161300 VRB03KT 1/4SM FG VV002
     FM161700 VRB03KT P6SM SKC
     FM161900 30012KT P6SM SKC=



000
FTUS46 KLOX 152300
TAFWJF
TAF
KWJF 152320Z 1600/1624 25012KT P6SM SCT080
     FM160600 VRB03KT P6SM SKC
     FM162300 25012KT P6SM SCT100=



000
FTUS46 KLOX 152300
TAFPRB
TAF
KPRB 152320Z 1600/1624 20010KT P6SM SKC
     FM160200 31008KT P6SM SKC
     FM160600 VRB03KT P6SM SKC
     FM162300 20010KT P6SM SKC=



000
FTUS46 KLOX 152300
TAFLAX
TAF
KLAX 152320Z 1600/1706 27014KT P6SM SCT090
     FM160200 27008KT P6SM SKC
     FM160600 VRB03KT P6SM SKC
     FM161800 27008KT P6SM SKC
     FM162100 27015KT P6SM SCT100
     FM170200 27010KT P6SM SKC=



000
FTUS46 KLOX 152000 AAA
TAFLAX
TAF AMD
KLAX 152050Z 1521/1624 26012KT P6SM SCT090
     FM160200 26007KT P6SM SKC
     FM160700 VRB03KT P6SM SKC
     FM162000 26010KT P6SM SKC=



000
FTUS46 KLOX 151900 AAA
TAFSMX
TAF AMD
KSMX 151927Z 1519/1618 30008KT 6SM HZ SKC
     FM152000 30012G18KT P6SM SKC
     FM160400 VRB03KT P6SM SKC
     FM161000 00000KT 4SM BR OVC004=



000
FTUS46 KLOX 151700 RRA
TAFLAX
TAF
KLAX 151743Z 1518/1624 24004KT P6SM SKC
     FM152000 26012KT P6SM SKC
     FM160200 26007KT P6SM SKC
     FM160700 VRB03KT P6SM SKC
     FM162000 26010KT P6SM SKC=



000
FTUS46 KLOX 151700 RRA
TAFSMX
TAF
KSMX 151743Z 1518/1618 00000KT 5SM HZ SKC
     FM152000 30012G18KT P6SM SKC
     FM160400 VRB03KT P6SM SKC
     FM161000 00000KT 4SM BR OVC004=



000
FTUS46 KLOX 151700 RRA
TAFSBA
TAF
KSBA 151743Z 1518/1618 00000KT P6SM SKC
     FM152000 25008KT P6SM SKC
     FM160200 VRB03KT P6SM SKC=



000
FTUS46 KLOX 151700 RRA
TAFLGB
TAF
KLGB 151743Z 1518/1618 31003KT P6SM SKC
     FM151900 17006KT P6SM SKC
     FM152100 29012KT P6SM SKC
     FM160400 VRB03KT P6SM SKC=



000
FTUS46 KLOX 151700 RRA
TAFBUR
TAF
KBUR 151743Z 1518/1618 00000KT P6SM SKC
     FM152100 17009KT P6SM SKC
     FM160100 28008KT P6SM SKC
     FM160500 VRB03KT P6SM SKC=



000
FTUS46 KLOX 151700 RRA
TAFPRB
TAF
KPRB 151743Z 1518/1618 VRB03KT P6SM SKC
     FM152200 21012KT P6SM SKC
     FM160200 31008KT P6SM SKC
     FM160600 VRB03KT P6SM SKC=



000
FTUS46 KLOX 151700 RRA
TAFPMD
TAF
KPMD 151743Z 1518/1618 00000KT P6SM SKC
     FM151900 06006KT P6SM SCT070
     FM152300 25010KT P6SM SCT070
     FM160600 20006KT P6SM SKC=



000
FTUS46 KLOX 151700 RRA
TAFWJF
TAF
KWJF 151743Z 1518/1618 00000KT P6SM SKC
     FM151900 08006KT P6SM SCT070
     FM152300 24010KT P6SM SCT070
     FM160700 VRB03KT P6SM SKC=



000
FTUS46 KLOX 151700 RRA
TAFSBP
TAF
KSBP 151743Z 1518/1618 00000KT P6SM FEW004
     FM151900 31008KT P6SM SKC
     FM152200 31015KT P6SM SKC
     FM160400 VRB03KT P6SM SKC
     FM161200 00000KT 3SM BR OVC004=



000
FTUS46 KLOX 151700 RRA
TAFVNY
TAF
KVNY 151743Z 1518/1618 00000KT P6SM SKC
     FM152000 15007KT P6SM SKC
     FM152300 29008KT P6SM SKC
     FM160300 VRB03KT P6SM SKC=



000
FTUS46 KLOX 151600 AAD
TAFSMX
TAF AMD
KSMX 151613Z 1516/1612 00000KT 2SM BR OVC002
     FM151640 30006KT P6SM SKC
     FM152000 30012G18KT P6SM SKC
     FM160400 VRB03KT P6SM SKC
     FM161000 VRB03KT 4SM BR OVC004=



000
FTUS46 KLOX 151500 AAC
TAFSMX
TAF AMD
KSMX 151502Z 1515/1612 00000KT 1/4SM FG VV002
     FM151630 30006KT P6SM SKC
     FM152000 30012G18KT P6SM SKC
     FM160400 VRB03KT P6SM SKC
     FM161000 VRB03KT 4SM BR OVC004=



000
FTUS46 KLOX 151400 AAA
TAFLAX
TAF AMD
KLAX 151450Z 1515/1618 00000KT P6SM FEW120
     FM151600 26007KT P6SM SKC
     FM152000 26015KT P6SM SKC
     FM160200 26007KT P6SM SKC
     FM160700 VRB03KT P6SM SKC=



000
FTUS46 KLOX 151300 AAB
TAFSMX
TAF AMD
KSMX 151342Z 1514/1612 00000KT 1/4SM FG VV002
     FM151500 VRB03KT 4SM BR BKN004
     FM151700 30006KT P6SM SKC
     FM152000 30012G18KT P6SM SKC
     FM160400 VRB03KT P6SM SKC
     FM161000 VRB03KT 4SM BR OVC004=



000
FTUS46 KLOX 151200 AAA
TAFSMX
TAF AMD
KSMX 151239Z 1513/1612 VRB03KT 1SM BR BKN002
     FM151500 VRB03KT 4SM BR BKN004
     FM151700 30006KT P6SM SKC
     FM152000 30012G18KT P6SM SKC
     FM160400 VRB03KT P6SM SKC
     FM161000 VRB03KT 4SM BR OVC004=



000
FTUS46 KLOX 151200 AAA
TAFSBP
TAF AMD
KSBP 151238Z 1513/1612 32010KT 4SM BR BKN003
     FM151600 31010KT P6SM SKC
     FM152000 31015KT P6SM SKC
     FM160400 VRB03KT P6SM SKC=



000
FTUS46 KLOX 151100
TAFLGB
TAF
KLGB 151121Z 1512/1612 VRB03KT P6SM SKC
     FM151800 18006KT P6SM SKC
     FM152100 29012KT P6SM SKC
     FM160400 VRB03KT P6SM SKC=



000
FTUS46 KLOX 151100
TAFSMX
TAF
KSMX 151121Z 1512/1612 VRB03KT 5SM BR BKN006
     FM151600 30006KT P6SM SKC
     FM152000 30012G18KT P6SM SKC
     FM160400 VRB03KT P6SM SKC
     FM161000 VRB03KT 4SM BR OVC004=



000
FTUS46 KLOX 151100
TAFLAX
TAF
KLAX 151121Z 1512/1618 VRB03KT P6SM SKC
     FM151600 26007KT P6SM SKC
     FM152000 26015KT P6SM SKC
     FM160200 26007KT P6SM SKC
     FM160700 VRB03KT P6SM SKC=



000
FTUS46 KLOX 151100
TAFSBP
TAF
KSBP 151121Z 1512/1612 VRB03KT P6SM SKC
     FM151600 31007KT P6SM SKC
     FM152000 31015KT P6SM SKC
     FM160400 VRB03KT P6SM SKC=



000
FTUS46 KLOX 151100
TAFSBA
TAF
KSBA 151121Z 1512/1612 VRB03KT P6SM SKC
     FM151700 17006KT P6SM SKC
     FM152000 25008KT P6SM SKC
     FM160200 VRB03KT P6SM SKC=



000
FTUS46 KLOX 151100
TAFWJF
TAF
KWJF 151121Z 1512/1612 VRB03KT P6SM SKC
     FM151900 08006KT P6SM SCT070
     FM152300 24010KT P6SM SCT070
     FM160700 VRB03KT P6SM SKC=



000
FTUS46 KLOX 151100
TAFPRB
TAF
KPRB 151121Z 1512/1612 VRB03KT P6SM SKC
     FM152200 21012KT P6SM SKC
     FM160200 31008KT P6SM SKC
     FM160600 VRB03KT P6SM SKC=



000
FTUS46 KLOX 151100
TAFBUR
TAF
KBUR 151121Z 1512/1612 VRB03KT P6SM SKC
     FM152100 17009KT P6SM SKC
     FM160100 28008KT P6SM SKC
     FM160500 VRB03KT P6SM SKC=



000
FTUS46 KLOX 151100
TAFPMD
TAF
KPMD 151121Z 1512/1612 20006KT P6SM SKC
     FM151900 06006KT P6SM SCT070
     FM152300 25010KT P6SM SCT070
     FM160600 20006KT P6SM SKC=



000
FTUS46 KLOX 151100
TAFVNY
TAF
KVNY 151121Z 1512/1612 VRB03KT P6SM SKC
     FM152000 15007KT P6SM SKC
     FM152300 29008KT P6SM SKC
     FM160300 VRB03KT P6SM SKC=



000
FTUS46 KLOX 150900 AAA
TAFSBP
TAF AMD
KSBP 150938Z 1510/1606 VRB03KT P6SM SKC
     FM151600 31007KT P6SM SKC
     FM152000 31015KT P6SM SKC
     FM160400 VRB03KT P6SM SKC=



000
FTUS46 KLOX 150800 AAA
TAFLAX
TAF AMD
KLAX 150850Z 1509/1612 VRB03KT P6SM SKC
     FM151100 VRB03KT 6SM BR SKC
     FM151600 26007KT P6SM SKC
     FM152000 26015KT P6SM SKC
     FM160200 26007KT P6SM SKC
     FM160700 VRB03KT P6SM SKC=



000
FTUS46 KLOX 150700 AAA
TAFSMX
TAF AMD
KSMX 150700Z 1507/1606 VRB03KT 6SM BR SKC
     FM151100 VRB03KT 4SM BR OVC003
     FM151300 00000KT 1/4SM FG VV001
     FM151500 VRB03KT 3SM BR BKN004
     FM151600 30006KT P6SM SKC
     FM152000 30012G18KT P6SM SKC
     FM160400 VRB03KT P6SM SKC=



000
FTUS46 KLOX 150500
TAFSMX
TAF
KSMX 150524Z 1506/1606 VRB03KT 6SM BR SKC
     FM150800 VRB03KT 4SM BR OVC003
     FM151000 00000KT 1/4SM FG VV001
     FM151500 VRB03KT 3SM BR BKN004
     FM151600 30006KT P6SM SKC
     FM152000 30012G18KT P6SM SKC
     FM160400 VRB03KT P6SM SKC=



000
FTUS46 KLOX 150500
TAFVNY
TAF
KVNY 150524Z 1506/1606 VRB03KT P6SM SKC
     FM152000 15007KT P6SM SKC
     FM152300 29008KT P6SM SKC
     FM160300 VRB03KT P6SM SKC=



000
FTUS46 KLOX 150500
TAFSBA
TAF
KSBA 150524Z 1506/1606 VRB03KT P6SM SKC WS010/35025KT
     FM151000 VRB03KT P6SM SKC
     FM151700 17006KT P6SM SKC
     FM152000 25008KT P6SM SKC
     FM160200 VRB03KT P6SM SKC=



000
FTUS46 KLOX 150500
TAFSBP
TAF
KSBP 150524Z 1506/1606 32006KT P6SM SKC
     FM151000 VRB03KT 4SM BR OVC003
     FM151600 31007KT P6SM SKC
     FM152000 31015KT P6SM SKC
     FM160400 VRB03KT P6SM SKC=



000
FTUS46 KLOX 150500
TAFPRB
TAF
KPRB 150524Z 1506/1606 31008KT P6SM SKC
     FM150800 VRB03KT P6SM SKC
     FM152200 21012KT P6SM SKC
     FM160200 31008KT P6SM SKC=



000
FTUS46 KLOX 150500
TAFLGB
TAF
KLGB 150524Z 1506/1606 VRB03KT P6SM SKC
     FM151800 18006KT P6SM SKC
     FM152100 29012KT P6SM SKC
     FM160400 VRB03KT P6SM SKC=



000
FTUS46 KLOX 150500
TAFLAX
TAF
KLAX 150524Z 1506/1612 VRB03KT P6SM SKC
     FM151100 VRB03KT 6SM BR SKC
     FM151600 26007KT P6SM SKC
     FM152000 26015KT P6SM SKC
     FM160200 26007KT P6SM SKC
     FM160700 VRB03KT P6SM SKC=



000
FTUS46 KLOX 150500
TAFPMD
TAF
KPMD 150524Z 1506/1606 22007KT P6SM SKC
     FM151100 VRB03KT P6SM SKC
     FM151900 06006KT P6SM SCT070
     FM152300 25010KT P6SM SCT070=



000
FTUS46 KLOX 150500
TAFBUR
TAF
KBUR 150524Z 1506/1606 VRB03KT P6SM SKC
     FM152100 17009KT P6SM SKC
     FM160100 28008KT P6SM SKC
     FM160500 VRB03KT P6SM SKC=



000
FTUS46 KLOX 150500
TAFWJF
TAF
KWJF 150524Z 1506/1606 24007KT P6SM SKC
     FM151100 VRB03KT P6SM SKC
     FM151900 08006KT P6SM SCT070
     FM152300 24010KT P6SM SCT070=



000
FTUS46 KLOX 150200 AAA
TAFLAX
TAF AMD
KLAX 150258Z 1503/1606 26008KT P6SM SKC
     FM150600 VRB03KT P6SM SKC
     FM151100 00000KT 6SM BR VCFG FEW001
     FM151600 26008KT P6SM SKC
     FM152000 26013KT P6SM FEW090
     FM160400 26008KT P6SM SKC=



    US Dept of Commerce
    National Oceanic and Atmospheric Administration
    National Weather Service
    1325 East West Highway
    Silver Spring, MD 20910
    Page Author: NWS Internet Services Team
Disclaimer
Information Quality
Credits
Glossary
Privacy Policy
Freedom of Information Act (FOIA)
About Us
Career Opportunities